Time;durP1;ratioP1;P1;durP2;ratioP2;P2;SDS_P1;SDS_P2;PMS_P1;PMS_P2;Temp;Humidity;BMP_temperature;BMP_pressure;BME280_temperature;BME280_humidity;BME280_pressure;Samples;Min_cycle;Max_cycle;Signal;HPM_P1;HPM_P2
2023/06/07 00:01:08;;;;;;;0.40;0.40;;;17.40;99.90;;;;;;5136825;27;20042;-73
2023/06/07 00:03:35;;;;;;;4.40;0.55;;;17.50;99.90;;;;;;5137072;27;20464;-73
2023/06/07 00:06:01;;;;;;;0.20;0.20;;;17.50;99.90;;;;;;5137024;27;20031;-73
2023/06/07 00:08:30;;;;;;;0.10;0.10;;;17.50;99.90;;;;;;5137139;27;20023;-73
2023/06/07 00:10:56;;;;;;;0.05;0.05;;;17.50;99.90;;;;;;5132837;27;20015;-73
2023/06/07 00:13:22;;;;;;;1.05;0.98;;;17.40;99.90;;;;;;5126819;27;20038;-73
2023/06/07 00:15:48;;;;;;;0.35;0.35;;;17.30;99.90;;;;;;5136708;27;20023;-73
2023/06/07 00:18:14;;;;;;;1.15;0.68;;;17.20;99.90;;;;;;5136891;27;20371;-73
2023/06/07 00:20:45;;;;;;;0.25;0.25;;;17.20;99.90;;;;;;5136943;27;20038;-73
2023/06/07 00:23:15;;;;;;;0.10;0.10;;;17.10;99.90;;;;;;5118486;27;20490;-73
2023/06/07 00:25:41;;;;;;;0.10;0.10;;;16.90;99.90;;;;;;5101619;27;20045;-73
2023/06/07 00:28:07;;;;;;;0.00;0.00;;;16.90;99.90;;;;;;5136671;27;20073;-73
2023/06/07 00:30:33;;;;;;;0.55;0.55;;;17.10;99.90;;;;;;5118187;27;20058;-73
2023/06/07 00:32:58;;;;;;;0.10;0.10;;;17.30;99.90;;;;;;5118052;27;20031;-73
2023/06/07 00:35:24;;;;;;;0.43;0.43;;;17.20;99.90;;;;;;5118157;27;20079;-73
2023/06/07 00:37:50;;;;;;;0.22;0.22;;;17.20;99.90;;;;;;5136388;27;20027;-73
2023/06/07 00:40:16;;;;;;;0.30;0.30;;;17.20;99.90;;;;;;5136221;27;20197;-72
2023/06/07 00:42:42;;;;;;;0.38;0.38;;;17.10;99.90;;;;;;5136208;27;20034;-72
2023/06/07 00:45:09;;;;;;;0.20;0.20;;;17.10;99.90;;;;;;5117744;27;20133;-72
2023/06/07 00:47:40;;;;;;;2.75;1.75;;;17.10;99.90;;;;;;5109712;28;20053;-73
2023/06/07 00:50:07;;;;;;;0.10;0.10;;;17.20;99.90;;;;;;5116403;27;20399;-72
2023/06/07 00:52:35;;;;;;;4.72;1.15;;;17.10;99.90;;;;;;5117891;27;20090;-72
2023/06/07 00:55:02;;;;;;;0.30;0.30;;;17.00;99.90;;;;;;5136226;27;20023;-73
2023/06/07 00:57:29;;;;;;;1.65;0.38;;;16.90;99.90;;;;;;5117858;27;20059;-72
2023/06/07 00:59:55;;;;;;;0.10;0.10;;;16.90;99.90;;;;;;5135771;27;20027;-73
2023/06/07 01:02:21;;;;;;;0.00;0.00;;;16.80;99.90;;;;;;5136170;27;20016;-75
2023/06/07 01:04:49;;;;;;;0.10;0.10;;;16.80;99.90;;;;;;5117681;27;20038;-73
2023/06/07 01:07:24;;;;;;;0.10;0.10;;;16.80;99.90;;;;;;5116453;27;20030;-73
2023/06/07 01:09:51;;;;;;;0.10;0.10;;;16.70;99.90;;;;;;5117332;27;20486;-73
2023/06/07 01:12:18;;;;;;;0.30;0.30;;;16.70;99.90;;;;;;5102841;27;20042;-73
2023/06/07 01:14:47;;;;;;;1.25;0.30;;;16.70;99.90;;;;;;5117225;27;20023;-73
2023/06/07 01:17:14;;;;;;;0.30;0.30;;;16.60;99.90;;;;;;5135703;27;20015;-73
2023/06/07 01:19:42;;;;;;;0.00;0.00;;;16.40;99.90;;;;;;5117249;27;20118;-73
2023/06/07 01:22:10;;;;;;;0.30;0.30;;;16.70;99.90;;;;;;5135790;27;20031;-73
2023/06/07 01:24:39;;;;;;;0.50;0.50;;;16.50;99.90;;;;;;5131436;27;20039;-74
2023/06/07 01:27:07;;;;;;;0.40;0.40;;;16.50;99.90;;;;;;5108028;27;20106;-74
2023/06/07 01:29:33;;;;;;;1.23;0.38;;;16.60;99.90;;;;;;5116954;27;20075;-75
2023/06/07 01:32:07;;;;;;;1.00;0.90;;;16.50;99.90;;;;;;5135626;27;20147;-75
2023/06/07 01:34:34;;;;;;;0.00;0.00;;;16.20;99.90;;;;;;5135151;27;20403;-75
2023/06/07 01:37:01;;;;;;;1.85;1.30;;;16.30;99.90;;;;;;5135524;27;20026;-75
2023/06/07 01:39:30;;;;;;;1.08;0.85;;;16.50;99.90;;;;;;5135133;27;20035;-75
2023/06/07 01:41:58;;;;;;;0.20;0.20;;;16.60;99.90;;;;;;5135138;27;20027;-72
2023/06/07 01:44:24;;;;;;;0.63;0.63;;;16.60;99.90;;;;;;5116761;27;20035;-75
2023/06/07 01:46:51;;;;;;;0.20;0.20;;;16.60;99.90;;;;;;5135349;27;20027;-75
2023/06/07 01:49:21;;;;;;;0.35;0.35;;;16.60;99.90;;;;;;5134927;27;20020;-74
2023/06/07 01:51:47;;;;;;;3.20;0.57;;;16.40;99.90;;;;;;5134962;27;20022;-75
2023/06/07 01:54:14;;;;;;;0.10;0.10;;;16.20;99.90;;;;;;5116664;27;20383;-74
2023/06/07 01:56:58;;;;;;;0.38;0.38;;;16.30;99.90;;;;;;5134847;27;20026;-72
2023/06/07 01:59:27;;;;;;;1.10;1.00;;;16.40;99.90;;;;;;5116487;27;20037;-74
2023/06/07 02:02:02;;;;;;;0.10;0.10;;;16.40;99.90;;;;;;5116512;27;20031;-75
2023/06/07 02:04:31;;;;;;;0.47;0.47;;;16.30;99.90;;;;;;5134820;27;20122;-74
2023/06/07 02:07:05;;;;;;;0.28;0.25;;;16.20;99.90;;;;;;5116319;27;20495;-74
2023/06/07 02:09:37;;;;;;;0.30;0.30;;;16.30;99.90;;;;;;5099375;27;20072;-74
2023/06/07 02:12:05;;;;;;;0.52;0.52;;;16.20;99.90;;;;;;5120633;27;20055;-75
2023/06/07 02:14:32;;;;;;;0.10;0.10;;;16.20;99.90;;;;;;5134213;27;20505;-74
2023/06/07 02:16:57;;;;;;;0.30;0.30;;;16.20;99.90;;;;;;5116026;27;20023;-74
2023/06/07 02:19:24;;;;;;;0.10;0.10;;;16.20;99.90;;;;;;5115926;27;20023;-74
2023/06/07 02:21:50;;;;;;;0.10;0.10;;;16.10;99.90;;;;;;5134858;27;20031;-74
2023/06/07 02:24:17;;;;;;;0.10;0.10;;;16.20;99.90;;;;;;5134475;27;20042;-74
2023/06/07 02:26:43;;;;;;;0.30;0.30;;;16.40;99.90;;;;;;5115859;27;20019;-74
2023/06/07 02:29:09;;;;;;;0.22;0.22;;;16.30;99.90;;;;;;5115914;27;20395;-74
2023/06/07 02:31:35;;;;;;;0.47;0.47;;;16.20;99.90;;;;;;5115852;27;20027;-74
2023/06/07 02:34:01;;;;;;;0.10;0.10;;;16.30;99.90;;;;;;5115912;27;20029;-74
2023/06/07 02:36:33;;;;;;;0.10;0.10;;;16.20;99.90;;;;;;5115797;27;20426;-74
2023/06/07 02:38:58;;;;;;;2.63;1.77;;;16.20;99.90;;;;;;5099022;27;20034;-74
2023/06/07 02:41:25;;;;;;;0.35;0.35;;;16.20;99.90;;;;;;5133369;27;20027;-74
2023/06/07 02:43:54;;;;;;;0.10;0.10;;;16.10;99.90;;;;;;5107662;27;20071;-74
2023/06/07 02:46:22;;;;;;;0.90;0.73;;;16.10;99.90;;;;;;5115507;27;20035;-74
2023/06/07 02:48:48;;;;;;;0.13;0.13;;;16.00;99.90;;;;;;5115595;27;20038;-74
2023/06/07 02:51:15;;;;;;;0.13;0.13;;;16.20;99.90;;;;;;5115461;27;20038;-74
2023/06/07 02:53:40;;;;;;;0.10;0.10;;;16.10;99.90;;;;;;5101377;28;20024;-74
2023/06/07 02:56:08;;;;;;;0.70;0.45;;;16.00;99.90;;;;;;5087112;27;20027;-73
2023/06/07 02:58:34;;;;;;;0.10;0.10;;;15.80;99.90;;;;;;5115809;27;20023;-74
2023/06/07 03:01:02;;;;;;;0.22;0.22;;;15.90;99.90;;;;;;5111171;28;20020;-74
2023/06/07 03:03:28;;;;;;;0.03;0.03;;;15.90;99.90;;;;;;5105698;27;20142;-74
2023/06/07 03:06:02;;;;;;;1.90;1.33;;;16.00;99.90;;;;;;5115080;28;20088;-74
2023/06/07 03:08:32;;;;;;;0.10;0.10;;;15.80;99.90;;;;;;5115114;28;20037;-74
2023/06/07 03:11:00;;;;;;;0.20;0.20;;;15.70;99.90;;;;;;5115278;28;20110;-74
2023/06/07 03:13:30;;;;;;;0.70;0.70;;;15.60;99.90;;;;;;5115527;27;20027;-74
2023/06/07 03:15:56;;;;;;;0.10;0.10;;;15.60;99.90;;;;;;5115272;28;20433;-74
2023/06/07 03:18:24;;;;;;;0.40;0.40;;;15.60;99.90;;;;;;5108303;28;20143;-74
2023/06/07 03:20:55;;;;;;;0.30;0.30;;;15.60;99.90;;;;;;5108885;28;20073;-74
2023/06/07 03:23:22;;;;;;;3.10;1.75;;;15.60;99.90;;;;;;5133151;28;20019;-74
2023/06/07 03:25:49;;;;;;;2.65;0.50;;;15.60;99.90;;;;;;5133551;28;20126;-74
2023/06/07 03:28:22;;;;;;;0.15;0.15;;;15.50;99.90;;;;;;5115338;27;20092;-74
2023/06/07 03:30:48;;;;;;;0.80;0.40;;;15.60;99.90;;;;;;5119181;27;20431;-74
2023/06/07 03:33:18;;;;;;;1.80;1.42;;;15.50;99.90;;;;;;5102920;27;20016;-74
2023/06/07 03:35:44;;;;;;;0.10;0.10;;;15.50;99.90;;;;;;5119348;27;20026;-74
2023/06/07 03:38:14;;;;;;;0.10;0.10;;;15.60;99.90;;;;;;5118590;27;20023;-75
2023/06/07 03:40:42;;;;;;;0.20;0.20;;;15.60;99.90;;;;;;5118523;27;20023;-73
2023/06/07 03:43:09;;;;;;;1.05;0.82;;;15.50;99.90;;;;;;5118981;27;20024;-74
2023/06/07 03:45:35;;;;;;;0.45;0.45;;;15.40;99.90;;;;;;5101379;28;20031;-74
2023/06/07 03:48:08;;;;;;;1.00;1.00;;;15.30;99.90;;;;;;5098807;28;20027;-74
2023/06/07 03:50:34;;;;;;;0.10;0.10;;;15.30;99.90;;;;;;5098717;28;20391;-74
2023/06/07 03:53:00;;;;;;;0.70;0.70;;;15.40;99.90;;;;;;5116352;28;20147;-74
2023/06/07 03:55:26;;;;;;;0.10;0.10;;;15.40;99.90;;;;;;5134103;27;20459;-75
2023/06/07 03:57:51;;;;;;;0.80;0.40;;;15.50;99.90;;;;;;5118773;27;20026;-74
2023/06/07 04:00:18;;;;;;;2.05;1.05;;;15.50;99.90;;;;;;5118925;27;20027;-74
2023/06/07 04:02:49;;;;;;;0.35;0.35;;;15.70;99.90;;;;;;5118940;27;20359;-74
2023/06/07 04:05:17;;;;;;;0.82;0.82;;;15.60;99.90;;;;;;5118484;27;20078;-74
2023/06/07 04:07:44;;;;;;;0.10;0.10;;;15.50;99.90;;;;;;5118294;27;20554;-74
2023/06/07 04:10:10;;;;;;;0.40;0.40;;;15.60;99.90;;;;;;5118645;27;20031;-74
2023/06/07 04:12:36;;;;;;;0.65;0.65;;;15.50;99.90;;;;;;5118598;27;20034;-74
2023/06/07 04:15:01;;;;;;;0.20;0.20;;;15.50;99.90;;;;;;5118517;27;20023;-74
2023/06/07 04:17:30;;;;;;;0.10;0.10;;;15.40;99.90;;;;;;5118503;27;20420;-74
2023/06/07 04:19:56;;;;;;;0.10;0.10;;;15.40;99.90;;;;;;5118473;27;20023;-74
2023/06/07 04:22:24;;;;;;;0.68;0.68;;;15.40;99.90;;;;;;5118168;27;20019;-74
2023/06/07 04:24:51;;;;;;;0.45;0.45;;;15.30;99.90;;;;;;5118443;27;20054;-74
2023/06/07 04:27:18;;;;;;;0.93;0.75;;;15.30;99.90;;;;;;5118368;27;20132;-74
2023/06/07 04:29:49;;;;;;;0.10;0.10;;;15.30;99.90;;;;;;5118158;27;20405;-74
2023/06/07 04:32:18;;;;;;;0.75;0.75;;;15.30;99.90;;;;;;5118328;27;20034;-74
2023/06/07 04:34:47;;;;;;;0.20;0.20;;;15.20;99.90;;;;;;5118189;27;20027;-74
2023/06/07 04:37:14;;;;;;;1.20;0.57;;;15.20;99.90;;;;;;5117977;27;20020;-74
2023/06/07 04:39:44;;;;;;;0.32;0.32;;;15.20;99.90;;;;;;5117922;27;20502;-74
2023/06/07 04:42:12;;;;;;;0.10;0.10;;;15.20;99.90;;;;;;5101042;27;20035;-74
2023/06/07 04:44:38;;;;;;;0.10;0.10;;;15.30;99.90;;;;;;5101038;27;20035;-74
2023/06/07 04:47:10;;;;;;;0.10;0.10;;;15.40;99.90;;;;;;5118094;27;20027;-74
2023/06/07 04:49:38;;;;;;;0.10;0.10;;;15.40;99.90;;;;;;5117891;27;20023;-74
2023/06/07 04:52:05;;;;;;;0.90;0.90;;;15.20;99.90;;;;;;5097676;27;20035;-74
2023/06/07 04:54:32;;;;;;;2.35;1.88;;;15.10;99.90;;;;;;5106783;27;20024;-74
2023/06/07 04:56:59;;;;;;;11.93;1.52;;;15.30;99.90;;;;;;5117754;27;20471;-74
2023/06/07 04:59:34;;;;;;;0.40;0.40;;;15.20;99.90;;;;;;5117805;27;20110;-74
2023/06/07 05:02:02;;;;;;;0.10;0.10;;;15.10;99.90;;;;;;5117488;27;20028;-74
2023/06/07 05:04:28;;;;;;;1.75;1.05;;;15.30;99.90;;;;;;5117328;27;20129;-74
2023/06/07 05:06:58;;;;;;;0.73;0.73;;;15.10;99.90;;;;;;5117745;27;20554;-74
2023/06/07 05:09:25;;;;;;;1.38;0.75;;;15.00;99.90;;;;;;5117734;27;20023;-74
2023/06/07 05:11:52;;;;;;;0.10;0.10;;;15.00;99.90;;;;;;5100993;27;20019;-74
2023/06/07 05:14:18;;;;;;;4.90;2.05;;;15.30;99.90;;;;;;5117310;27;20068;-74
2023/06/07 05:16:45;;;;;;;0.13;0.13;;;15.50;99.90;;;;;;5100577;27;20023;-74
2023/06/07 05:19:12;;;;;;;3.53;0.75;;;15.60;99.90;;;;;;5116930;27;20081;-74
2023/06/07 05:21:40;;;;;;;0.20;0.20;;;15.50;99.90;;;;;;5109433;27;20038;-74
2023/06/07 05:24:06;;;;;;;0.22;0.22;;;15.50;99.90;;;;;;5117124;27;20023;-72
2023/06/07 05:26:32;;;;;;;2.72;2.17;;;15.50;99.90;;;;;;5117209;27;20510;-74
2023/06/07 05:28:58;;;;;;;3.70;1.85;;;15.10;99.90;;;;;;5095981;28;20062;-74
2023/06/07 05:31:25;;;;;;;0.30;0.30;;;15.30;99.90;;;;;;5113826;28;20035;-74
2023/06/07 05:33:52;;;;;;;0.90;0.75;;;15.30;99.90;;;;;;5095635;28;20012;-75
2023/06/07 05:36:20;;;;;;;0.35;0.35;;;15.50;99.90;;;;;;5110376;28;20068;-77
2023/06/07 05:38:46;;;;;;;0.38;0.38;;;15.60;99.90;;;;;;5100024;28;20063;-75
2023/06/07 05:41:12;;;;;;;2.13;1.55;;;15.60;99.90;;;;;;5094583;28;20096;-75
2023/06/07 05:43:38;;;;;;;0.32;0.32;;;15.70;99.90;;;;;;5097310;28;20028;-75
2023/06/07 05:46:05;;;;;;;0.32;0.32;;;15.60;99.90;;;;;;5085395;28;20384;-78
2023/06/07 05:48:31;;;;;;;0.10;0.10;;;15.80;99.90;;;;;;5106125;28;20038;-74
2023/06/07 05:50:57;;;;;;;0.47;0.47;;;15.70;99.90;;;;;;5098377;28;20043;-74
2023/06/07 05:53:23;;;;;;;2.53;0.45;;;16.00;99.90;;;;;;5113004;28;20028;-76
2023/06/07 05:55:49;;;;;;;0.22;0.20;;;15.80;99.90;;;;;;5122553;27;20387;-79
2023/06/07 05:58:15;;;;;;;0.25;0.25;;;15.90;99.90;;;;;;5112429;27;20024;-78
2023/06/07 06:00:40;;;;;;;2.10;1.08;;;16.10;99.90;;;;;;5114017;27;20106;-79
2023/06/07 06:03:07;;;;;;;0.10;0.10;;;16.20;99.90;;;;;;5118584;27;20038;-79
2023/06/07 06:05:32;;;;;;;0.10;0.10;;;16.20;99.90;;;;;;5122989;27;20032;-78
2023/06/07 06:07:58;;;;;;;0.03;0.03;;;16.10;99.90;;;;;;5129667;27;20068;-78
2023/06/07 06:10:25;;;;;;;0.10;0.10;;;16.50;99.90;;;;;;5132273;27;20042;-78
2023/06/07 06:12:52;;;;;;;0.60;0.60;;;16.60;99.90;;;;;;5112965;28;20023;-78
2023/06/07 06:15:17;;;;;;;0.10;0.10;;;16.60;99.90;;;;;;5119267;27;20036;-77
2023/06/07 06:17:43;;;;;;;2.38;0.90;;;16.40;99.90;;;;;;5125681;27;20060;-78
2023/06/07 06:20:10;;;;;;;0.52;0.52;;;16.40;99.90;;;;;;5130296;27;20031;-78
2023/06/07 06:22:35;;;;;;;3.60;2.13;;;16.70;99.90;;;;;;5132257;27;20054;-78
2023/06/07 06:25:01;;;;;;;1.08;0.68;;;16.70;99.90;;;;;;5117530;27;20063;-78
2023/06/07 06:27:27;;;;;;;8.95;1.58;;;16.90;99.90;;;;;;5119919;27;20228;-77
2023/06/07 06:29:53;;;;;;;1.08;1.08;;;17.00;99.90;;;;;;5112665;27;20494;-78
2023/06/07 06:32:19;;;;;;;0.30;0.30;;;17.00;99.90;;;;;;5112739;28;20410;-78
2023/06/07 06:34:45;;;;;;;0.20;0.20;;;16.90;99.90;;;;;;5112694;28;20026;-78
2023/06/07 06:37:11;;;;;;;0.30;0.30;;;17.10;99.90;;;;;;5113211;28;20032;-78
2023/06/07 06:39:36;;;;;;;1.52;1.42;;;17.30;99.90;;;;;;5112972;28;20035;-78
2023/06/07 06:42:02;;;;;;;0.10;0.10;;;17.50;99.90;;;;;;5085630;28;20069;-78
2023/06/07 06:44:46;;;;;;;0.10;0.10;;;17.50;99.90;;;;;;5078800;28;20032;-76
2023/06/07 06:47:14;;;;;;;0.68;0.38;;;17.50;99.90;;;;;;5112734;28;20114;-78
2023/06/07 06:49:40;;;;;;;0.30;0.30;;;17.40;99.90;;;;;;5112667;28;20031;-79
2023/06/07 06:52:06;;;;;;;1.48;0.73;;;17.30;99.90;;;;;;5115747;27;20019;-78
2023/06/07 06:54:31;;;;;;;9.13;1.30;;;17.30;99.90;;;;;;5122023;27;20042;-77
2023/06/07 06:56:57;;;;;;;0.20;0.20;;;17.40;99.90;;;;;;5119566;27;20106;-78
2023/06/07 06:59:23;;;;;;;0.15;0.15;;;17.50;99.90;;;;;;5112359;28;20461;-79
2023/06/07 07:01:50;;;;;;;0.00;0.00;;;17.60;99.90;;;;;;5114712;27;20028;-78
2023/06/07 07:04:17;;;;;;;1.17;0.85;;;17.80;99.90;;;;;;5122184;27;20043;-79
2023/06/07 07:06:43;;;;;;;0.38;0.38;;;18.00;99.90;;;;;;5113013;28;20076;-78
2023/06/07 07:09:09;;;;;;;0.00;0.00;;;18.50;99.90;;;;;;5114603;27;20368;-79
2023/06/07 07:11:39;;;;;;;0.10;0.10;;;18.80;99.90;;;;;;5124190;27;20023;-77
2023/06/07 07:14:05;;;;;;;0.68;0.68;;;19.20;99.90;;;;;;5117559;27;20043;-77
2023/06/07 07:16:31;;;;;;;0.95;0.90;;;19.20;99.90;;;;;;5124389;27;20023;-78
2023/06/07 07:18:57;;;;;;;0.08;0.08;;;19.30;99.90;;;;;;5117936;28;20019;-79
2023/06/07 07:21:23;;;;;;;0.30;0.30;;;19.50;99.90;;;;;;5132143;28;20098;-80
2023/06/07 07:23:49;;;;;;;0.00;0.00;;;19.70;99.90;;;;;;5121699;28;20563;-81
2023/06/07 07:26:14;;;;;;;0.70;0.57;;;20.00;99.90;;;;;;5120712;28;20031;-80
2023/06/07 07:28:40;;;;;;;8.77;2.85;;;19.50;99.90;;;;;;5123702;28;20478;-80
2023/06/07 07:31:06;;;;;;;0.03;0.03;;;19.20;99.90;;;;;;5126214;28;20030;-80
2023/06/07 07:33:32;;;;;;;0.20;0.20;;;19.60;99.90;;;;;;5132885;28;20518;-81
2023/06/07 07:36:00;;;;;;;0.10;0.10;;;19.60;99.90;;;;;;5120726;28;20035;-79
2023/06/07 07:38:26;;;;;;;4.07;1.20;;;19.70;99.90;;;;;;5123270;28;20031;-80
2023/06/07 07:40:52;;;;;;;0.43;0.43;;;19.50;99.90;;;;;;5111407;28;20039;-79
2023/06/07 07:43:18;;;;;;;0.00;0.00;;;19.80;99.90;;;;;;5129493;28;20027;-79
2023/06/07 07:45:43;;;;;;;0.00;0.00;;;19.50;99.90;;;;;;5122304;28;20110;-79
2023/06/07 07:48:09;;;;;;;0.30;0.30;;;19.90;99.90;;;;;;5113286;28;20489;-80
2023/06/07 07:50:38;;;;;;;0.00;0.00;;;20.10;99.90;;;;;;5123668;28;20039;-79
2023/06/07 07:53:05;;;;;;;0.60;0.52;;;20.30;99.90;;;;;;5116162;28;20031;-75
2023/06/07 07:55:32;;;;;;;0.20;0.20;;;20.10;99.90;;;;;;5125072;28;20026;-79
2023/06/07 07:57:58;;;;;;;1.33;1.23;;;20.20;99.90;;;;;;5121796;28;20027;-78
2023/06/07 08:00:24;;;;;;;0.20;0.20;;;20.50;99.90;;;;;;5113076;28;20024;-78
2023/06/07 08:02:50;;;;;;;0.00;0.00;;;20.30;99.90;;;;;;5111357;28;20386;-81
2023/06/07 08:05:16;;;;;;;0.00;0.00;;;20.30;99.90;;;;;;5119601;28;20031;-80
2023/06/07 08:07:41;;;;;;;2.55;0.75;;;20.60;99.90;;;;;;5127935;28;20471;-80
2023/06/07 08:10:08;;;;;;;1.48;0.77;;;20.70;99.90;;;;;;5130869;28;20031;-80
2023/06/07 08:12:35;;;;;;;0.65;0.65;;;20.20;99.90;;;;;;5113343;28;20032;-80
2023/06/07 08:15:00;;;;;;;1.35;0.75;;;20.10;99.90;;;;;;5118229;27;20081;-80
2023/06/07 08:17:26;;;;;;;1.20;0.77;;;20.60;99.90;;;;;;5126068;27;20099;-80
2023/06/07 08:19:52;;;;;;;1.35;0.43;;;20.80;99.90;;;;;;5132874;27;20106;-81
2023/06/07 08:22:18;;;;;;;0.17;0.17;;;20.70;99.90;;;;;;5135250;27;20026;-80
2023/06/07 08:24:44;;;;;;;0.10;0.10;;;20.70;99.90;;;;;;5121217;27;20038;-81
2023/06/07 08:27:10;;;;;;;3.20;2.35;;;20.80;99.90;;;;;;5122198;27;20027;-81
2023/06/07 08:29:36;;;;;;;0.35;0.35;;;21.50;99.90;;;;;;5115309;27;20098;-80
2023/06/07 08:32:01;;;;;;;0.00;0.00;;;21.70;99.90;;;;;;5133138;27;20077;-82
2023/06/07 08:34:28;;;;;;;0.00;0.00;;;21.90;99.90;;;;;;5117467;27;20054;-81
2023/06/07 08:36:54;;;;;;;0.00;0.00;;;21.80;99.90;;;;;;5114428;28;20153;-81
2023/06/07 08:39:21;;;;;;;0.65;0.65;;;21.80;99.90;;;;;;5122791;27;20035;-81
2023/06/07 08:41:47;;;;;;;0.00;0.00;;;21.50;99.90;;;;;;5131559;27;20034;-78
2023/06/07 08:44:13;;;;;;;0.55;0.45;;;21.00;99.90;;;;;;5116967;27;20407;-81
2023/06/07 08:46:39;;;;;;;4.63;1.42;;;21.40;99.90;;;;;;5121051;27;20042;-82
2023/06/07 08:49:05;;;;;;;1.27;0.95;;;21.40;99.90;;;;;;5121064;27;20015;-82
2023/06/07 08:51:36;;;;;;;3.15;1.02;;;21.00;99.90;;;;;;5125864;27;20028;-81
2023/06/07 08:54:03;;;;;;;0.00;0.00;;;20.70;99.90;;;;;;5120982;27;20047;-80
2023/06/07 08:56:33;;;;;;;0.35;0.35;;;21.20;99.90;;;;;;5129076;27;20035;-82
2023/06/07 08:59:01;;;;;;;4.20;1.60;;;21.30;99.90;;;;;;5113573;27;20028;-82
2023/06/07 09:01:29;;;;;;;0.93;0.88;;;21.50;99.90;;;;;;5113777;28;20020;-81
2023/06/07 09:03:55;;;;;;;0.05;0.05;;;21.50;99.90;;;;;;5123181;27;20036;-81
2023/06/07 09:06:22;;;;;;;0.25;0.25;;;22.20;99.90;;;;;;5130670;27;20049;-81
2023/06/07 09:08:48;;;;;;;0.00;0.00;;;22.60;99.90;;;;;;5129417;27;20042;-81
2023/06/07 09:11:15;;;;;;;0.25;0.25;;;23.00;99.40;;;;;;5130181;27;20035;-81
2023/06/07 09:13:41;;;;;;;8.57;2.25;;;23.10;99.00;;;;;;5118028;27;20027;-79
2023/06/07 09:16:11;;;;;;;0.20;0.20;;;23.20;98.30;;;;;;5125800;27;20023;-80
2023/06/07 09:18:53;;;;;;;0.00;0.00;;;23.50;98.20;;;;;;5128213;27;20027;-79
2023/06/07 09:21:24;;;;;;;3.60;1.42;;;23.70;97.80;;;;;;5116276;27;20344;-81
2023/06/07 09:23:51;;;;;;;0.20;0.20;;;23.70;97.30;;;;;;5113108;28;20028;-81
2023/06/07 09:26:18;;;;;;;9.77;2.58;;;23.20;97.80;;;;;;5122572;27;20034;-80
2023/06/07 09:28:47;;;;;;;0.00;0.00;;;22.60;99.30;;;;;;5124568;27;20079;-80
2023/06/07 09:31:30;;;;;;;2.28;0.38;;;22.60;99.00;;;;;;5129384;27;20066;-80
2023/06/07 09:33:56;;;;;;;0.00;0.00;;;23.00;98.50;;;;;;5134066;27;20027;-80
2023/06/07 09:36:22;;;;;;;1.42;1.33;;;23.50;98.00;;;;;;5122453;27;20030;-80
2023/06/07 09:38:48;;;;;;;0.28;0.28;;;23.90;97.10;;;;;;5122677;27;20398;-80
2023/06/07 09:41:14;;;;;;;1.33;0.40;;;24.10;97.50;;;;;;5125332;27;20120;-81
2023/06/07 09:43:51;;;;;;;0.15;0.15;;;24.40;96.10;;;;;;5115886;27;20026;-79
2023/06/07 09:46:19;;;;;;;8.85;1.08;;;24.20;96.10;;;;;;5113718;27;20044;-80
2023/06/07 09:48:52;;;;;;;0.77;0.75;;;23.90;96.70;;;;;;5121418;27;20007;-80
2023/06/07 09:51:19;;;;;;;1.05;0.98;;;23.60;96.90;;;;;;5122630;27;20035;-80
2023/06/07 09:54:03;;;;;;;1.08;0.98;;;23.40;97.70;;;;;;5103553;27;20038;-80
2023/06/07 09:56:29;;;;;;;3.17;1.77;;;23.90;97.20;;;;;;5115977;27;20140;-80
2023/06/07 09:59:16;;;;;;;0.10;0.08;;;24.10;97.20;;;;;;5099447;28;20032;-80
2023/06/07 10:01:45;;;;;;;0.00;0.00;;;24.50;97.00;;;;;;5112389;28;20028;-79
2023/06/07 10:04:12;;;;;;;0.55;0.47;;;24.30;97.00;;;;;;5123338;27;20027;-80
2023/06/07 10:06:45;;;;;;;0.73;0.73;;;24.50;96.70;;;;;;5125970;27;20046;-78
2023/06/07 10:09:12;;;;;;;1.55;1.45;;;24.60;96.20;;;;;;5123752;27;20042;-75
2023/06/07 10:11:43;;;;;;;0.15;0.15;;;24.80;95.80;;;;;;5124510;27;20020;-74
2023/06/07 10:14:16;;;;;;;0.88;0.60;;;25.00;95.30;;;;;;5119734;27;20039;-75
2023/06/07 10:17:13;;;;;;;0.00;0.00;;;25.10;95.50;;;;;;5113583;27;20622;-75
2023/06/07 10:19:48;;;;;;;0.60;0.60;;;25.00;95.30;;;;;;5085655;27;20034;-75
2023/06/07 10:22:24;;;;;;;0.40;0.40;;;25.10;94.90;;;;;;5115566;27;20068;-74
2023/06/07 10:25:04;;;;;;;0.20;0.13;;;25.20;95.40;;;;;;5117787;27;20032;-74
2023/06/07 10:27:38;;;;;;;0.20;0.20;;;25.70;93.90;;;;;;5119937;27;20031;-75
2023/06/07 10:30:11;;;;;;;2.30;0.57;;;25.70;94.30;;;;;;5128122;27;20083;-75
2023/06/07 10:32:39;;;;;;;2.03;1.00;;;25.90;93.40;;;;;;5096378;27;20068;-74
2023/06/07 10:35:16;;;;;;;0.68;0.50;;;25.80;93.40;;;;;;5128766;27;20039;-74
2023/06/07 10:37:43;;;;;;;0.10;0.10;;;25.80;93.60;;;;;;5112053;28;20026;-74
2023/06/07 10:40:14;;;;;;;0.00;0.00;;;25.90;93.70;;;;;;5125102;27;20364;-74
2023/06/07 10:42:43;;;;;;;2.75;0.60;;;26.30;93.90;;;;;;5125373;27;20114;-74
2023/06/07 10:45:14;;;;;;;2.25;1.60;;;26.30;94.00;;;;;;5099024;27;20160;-74
2023/06/07 10:47:44;;;;;;;;;;;26.00;93.70;;;;;;5116537;27;20038;-74
2023/06/07 10:50:27;;;;;;;0.30;0.30;;;25.70;94.20;;;;;;5123783;27;20256;-74
2023/06/07 10:53:00;;;;;;;3.90;1.92;;;26.00;93.80;;;;;;5100371;28;20387;-74
2023/06/07 10:55:31;;;;;;;0.57;0.57;;;25.80;93.90;;;;;;5124589;27;20020;-74
2023/06/07 10:57:58;;;;;;;0.00;0.00;;;26.00;93.50;;;;;;5122576;27;20028;-74
2023/06/07 11:00:31;;;;;;;0.00;0.00;;;26.20;93.80;;;;;;5114153;27;20012;-75
2023/06/07 11:03:15;;;;;;;0.80;0.22;;;26.60;93.70;;;;;;5105957;27;20020;-75
2023/06/07 11:06:01;;;;;;;1.75;0.65;;;27.00;93.00;;;;;;5114299;27;20487;-74
2023/06/07 11:08:32;;;;;;;1.77;0.65;;;26.40;92.70;;;;;;5128085;27;20043;-74
2023/06/07 11:11:02;;;;;;;0.05;0.05;;;26.10;93.30;;;;;;5127569;27;20038;-74
2023/06/07 11:13:43;;;;;;;0.22;0.22;;;26.10;93.30;;;;;;5111237;28;20556;-74
2023/06/07 11:16:24;;;;;;;0.52;0.52;;;26.80;93.20;;;;;;5123303;27;20099;-74
2023/06/07 11:19:00;;;;;;;2.42;2.08;;;27.00;92.50;;;;;;5124138;28;20095;-74
2023/06/07 11:21:30;;;;;;;0.63;0.63;;;26.80;92.20;;;;;;5088774;28;20491;-74
2023/06/07 11:24:12;;;;;;;0.47;0.47;;;27.30;92.20;;;;;;5121095;28;20353;-74
2023/06/07 11:26:38;;;;;;;0.35;0.35;;;27.30;92.00;;;;;;5116250;28;20041;-75
2023/06/07 11:29:10;;;;;;;0.43;0.43;;;27.50;92.30;;;;;;5121441;28;20037;-76
2023/06/07 11:31:36;;;;;;;2.35;0.55;;;27.80;91.40;;;;;;5107239;28;20027;-76
2023/06/07 11:34:02;;;;;;;4.97;2.00;;;28.30;90.70;;;;;;5132726;28;20379;-76
2023/06/07 11:36:31;;;;;;;2.20;0.98;;;28.30;90.30;;;;;;5120214;28;20068;-76
2023/06/07 11:39:01;;;;;;;1.38;0.90;;;28.10;90.10;;;;;;5110852;28;20084;-74
2023/06/07 11:41:27;;;;;;;0.10;0.10;;;28.40;90.10;;;;;;5125665;28;20028;-76
2023/06/07 11:43:53;;;;;;;2.75;1.27;;;28.40;90.30;;;;;;5130698;28;20437;-74
2023/06/07 11:46:22;;;;;;;5.10;1.20;;;28.40;90.00;;;;;;5119146;28;20035;-76
2023/06/07 11:48:48;;;;;;;0.32;0.32;;;28.40;89.40;;;;;;5118995;28;20084;-77
2023/06/07 11:51:13;;;;;;;0.10;0.10;;;28.20;90.20;;;;;;5122534;27;20016;-76
2023/06/07 11:53:41;;;;;;;0.82;0.63;;;28.20;89.90;;;;;;5114032;27;20066;-76
2023/06/07 11:56:08;;;;;;;0.80;0.80;;;28.30;88.70;;;;;;5131587;27;20115;-76
2023/06/07 11:58:36;;;;;;;48.53;2.70;;;28.50;89.20;;;;;;5120471;27;20024;-76
2023/06/07 12:01:03;;;;;;;1.58;0.70;;;28.60;88.20;;;;;;5118661;27;20062;-76
2023/06/07 12:03:29;;;;;;;0.60;0.60;;;28.90;88.10;;;;;;5121048;27;20468;-76
2023/06/07 12:05:55;;;;;;;1.27;1.17;;;29.20;87.00;;;;;;5128235;27;20031;-76
2023/06/07 12:08:22;;;;;;;1.63;1.52;;;28.70;86.30;;;;;;5117837;27;20026;-76
2023/06/07 12:10:55;;;;;;;1.67;1.33;;;28.50;87.20;;;;;;5132055;27;20042;-76
2023/06/07 12:13:22;;;;;;;0.15;0.13;;;28.90;86.40;;;;;;5119379;27;20042;-76
2023/06/07 12:15:51;;;;;;;0.10;0.10;;;28.70;86.60;;;;;;5099690;27;20050;-76
2023/06/07 12:18:35;;;;;;;0.08;0.08;;;29.40;87.40;;;;;;5130046;27;20475;-74
2023/06/07 12:21:07;;;;;;;1.45;0.63;;;30.00;84.90;;;;;;5130068;27;20023;-76
2023/06/07 12:23:36;;;;;;;0.57;0.57;;;29.40;85.70;;;;;;5127646;27;20467;-78
2023/06/07 12:26:07;;;;;;;0.55;0.50;;;29.80;84.10;;;;;;5117546;27;20051;-77
2023/06/07 12:28:33;;;;;;;0.10;0.10;;;29.70;85.10;;;;;;5114396;27;20027;-76
2023/06/07 12:30:59;;;;;;;0.20;0.20;;;29.70;85.00;;;;;;5128989;27;20064;-76
2023/06/07 12:33:27;;;;;;;0.47;0.47;;;29.60;85.40;;;;;;5137705;27;20019;-76
2023/06/07 12:35:53;;;;;;;4.88;1.85;;;29.70;84.00;;;;;;5125184;27;20108;-76
2023/06/07 12:38:20;;;;;;;0.40;0.40;;;29.80;84.60;;;;;;5120767;27;20032;-76
2023/06/07 12:40:46;;;;;;;0.10;0.10;;;29.90;83.90;;;;;;5115945;28;20015;-76
2023/06/07 12:43:12;;;;;;;0.47;0.47;;;29.50;86.30;;;;;;5116955;28;20027;-75
2023/06/07 12:45:38;;;;;;;1.30;0.30;;;30.00;83.70;;;;;;5117387;28;20042;-76
2023/06/07 12:48:04;;;;;;;0.00;0.00;;;30.30;84.20;;;;;;5117371;28;20836;-76
2023/06/07 12:50:30;;;;;;;0.00;0.00;;;31.00;82.50;;;;;;5101621;28;20111;-76
2023/06/07 12:52:56;;;;;;;0.00;0.00;;;31.70;80.70;;;;;;5115655;28;20106;-76